Time;durP1;ratioP1;P1;durP2;ratioP2;P2;SDS_P1;SDS_P2;PMS_P1;PMS_P2;Temp;Humidity;BMP_temperature;BMP_pressure;BME280_temperature;BME280_humidity;BME280_pressure;Samples;Min_cycle;Max_cycle;Signal;HPM_P1;HPM_P2
2022/10/11 00:01:50;;;;;;;9.50;5.00;;;;;;;;;;5076594;28;21213;-84
2022/10/11 00:04:26;;;;;;;8.27;4.93;;;;;;;;;;5075313;28;20756;-83
2022/10/11 00:07:03;;;;;;;8.13;5.13;;;;;;;;;;5116654;27;20748;-83
2022/10/11 00:09:40;;;;;;;8.50;5.93;;;;;;;;;;5075454;28;20853;-83
2022/10/11 00:12:16;;;;;;;10.23;6.03;;;;;;;;;;5074826;28;21401;-83
2022/10/11 00:14:53;;;;;;;11.33;6.57;;;;;;;;;;5071126;28;21315;-87
2022/10/11 00:17:30;;;;;;;12.10;7.53;;;;;;;;;;5119017;27;20748;-83
2022/10/11 00:20:09;;;;;;;14.97;7.63;;;;;;;;;;5125850;27;20749;-83
2022/10/11 00:22:48;;;;;;;12.53;6.57;;;;;;;;;;5117511;27;20764;-82
2022/10/11 00:25:24;;;;;;;13.33;7.07;;;;;;;;;;5116769;27;21272;-82
2022/10/11 00:28:01;;;;;;;11.17;6.83;;;;;;;;;;5115993;27;20796;-81
2022/10/11 00:30:42;;;;;;;13.80;6.97;;;;;;;;;;5136634;27;20767;-82
2022/10/11 00:33:19;;;;;;;12.83;6.70;;;;;;;;;;5116286;27;20830;-83
2022/10/11 00:35:58;;;;;;;12.03;7.57;;;;;;;;;;5117401;27;20791;-83
2022/10/11 00:38:35;;;;;;;12.43;6.57;;;;;;;;;;5077840;28;20825;-83
2022/10/11 00:41:12;;;;;;;12.10;6.83;;;;;;;;;;5097297;27;20828;-83
2022/10/11 00:44:09;;;;;;;13.67;6.87;;;;;;;;;;5109247;27;20791;-83
2022/10/11 00:47:03;;;;;;;13.27;6.77;;;;;;;;;;5092813;27;21442;-83
2022/10/11 00:49:55;;;;;;;9.37;6.77;;;;;;;;;;5139063;27;20785;-83
2022/10/11 00:52:40;;;;;;;12.07;7.17;;;;;;;;;;5078511;28;20805;-83
2022/10/11 00:55:20;;;;;;;10.30;6.53;;;;;;;;;;5120792;27;20768;-83
2022/10/11 00:57:57;;;;;;;12.50;6.30;;;;;;;;;;5118555;27;20833;-83
2022/10/11 01:00:34;;;;;;;14.20;6.70;;;;;;;;;;5116917;27;20772;-83
2022/10/11 01:03:10;;;;;;;9.63;5.90;;;;;;;;;;5078598;28;21228;-83
2022/10/11 01:05:47;;;;;;;8.53;5.67;;;;;;;;;;5078313;28;21407;-83
2022/10/11 01:08:25;;;;;;;9.13;6.23;;;;;;;;;;5119522;27;20806;-84
2022/10/11 01:11:02;;;;;;;11.97;7.33;;;;;;;;;;5120462;27;21418;-83
2022/10/11 01:14:00;;;;;;;12.77;7.03;;;;;;;;;;5077588;28;20798;-83
2022/10/11 01:17:11;;;;;;;15.17;6.67;;;;;;;;;;5118870;27;20772;-83
2022/10/11 01:19:57;;;;;;;12.53;7.10;;;;;;;;;;5120297;27;21411;-83
2022/10/11 01:22:37;;;;;;;11.73;7.20;;;;;;;;;;5077269;28;20771;-82
2022/10/11 01:25:22;;;;;;;12.33;6.77;;;;;;;;;;5174940;27;20827;-83
2022/10/11 01:28:18;;;;;;;12.20;7.70;;;;;;;;;;5078700;28;20793;-83
2022/10/11 01:31:01;;;;;;;15.47;6.90;;;;;;;;;;5120452;27;20764;-83
2022/10/11 01:34:01;;;;;;;12.40;7.10;;;;;;;;;;5120989;27;20837;-83
2022/10/11 01:36:46;;;;;;;13.73;7.10;;;;;;;;;;5077232;28;20826;-83
2022/10/11 01:39:53;;;;;;;9.10;7.17;;;;;;;;;;5119100;27;20776;-83
2022/10/11 01:42:30;;;;;;;16.93;7.53;;;;;;;;;;5114143;27;20773;-83
2022/10/11 01:45:12;;;;;;;15.80;7.37;;;;;;;;;;5078932;28;21422;-83
2022/10/11 01:48:01;;;;;;;8.63;5.90;;;;;;;;;;5093200;27;20790;-83
2022/10/11 01:50:46;;;;;;;9.10;6.43;;;;;;;;;;5138556;27;20794;-83
2022/10/11 01:53:38;;;;;;;9.57;5.73;;;;;;;;;;5078900;28;20786;-83
2022/10/11 01:56:49;;;;;;;10.07;6.47;;;;;;;;;;5122649;27;20718;-83
2022/10/11 01:59:43;;;;;;;11.77;6.73;;;;;;;;;;5080645;28;20775;-83
2022/10/11 02:02:30;;;;;;;11.87;6.87;;;;;;;;;;5099041;27;20777;-83
2022/10/11 02:05:16;;;;;;;10.20;6.33;;;;;;;;;;5117856;27;20722;-83
2022/10/11 02:08:18;;;;;;;11.53;6.80;;;;;;;;;;5118629;27;20756;-83
2022/10/11 02:11:08;;;;;;;17.23;7.23;;;;;;;;;;5112325;27;20853;-87
2022/10/11 02:14:02;;;;;;;15.13;7.00;;;;;;;;;;5092233;27;20834;-83
2022/10/11 02:16:43;;;;;;;10.50;6.60;;;;;;;;;;5073090;27;20756;-84
2022/10/11 02:19:26;;;;;;;11.23;6.57;;;;;;;;;;5116780;27;21454;-83
2022/10/11 02:22:08;;;;;;;8.67;6.17;;;;;;;;;;5076640;28;20798;-83
2022/10/11 02:24:50;;;;;;;8.30;6.10;;;;;;;;;;5117181;27;20780;-83
2022/10/11 02:27:32;;;;;;;10.97;6.80;;;;;;;;;;5138066;27;20774;-83
2022/10/11 02:30:09;;;;;;;9.00;6.57;;;;;;;;;;5079029;28;21108;-83
2022/10/11 02:32:49;;;;;;;13.93;6.50;;;;;;;;;;5119403;27;21178;-83
2022/10/11 02:35:33;;;;;;;12.20;5.80;;;;;;;;;;5118788;27;20794;-83
2022/10/11 02:38:29;;;;;;;10.37;6.63;;;;;;;;;;5118719;27;20829;-83
2022/10/11 02:41:22;;;;;;;11.03;6.60;;;;;;;;;;5117746;27;20764;-83
2022/10/11 02:44:03;;;;;;;9.33;6.97;;;;;;;;;;5097477;27;20781;-83
2022/10/11 02:46:44;;;;;;;10.77;6.70;;;;;;;;;;5117646;27;20834;-83
2022/10/11 02:49:21;;;;;;;9.50;7.47;;;;;;;;;;5118046;27;20829;-81
2022/10/11 02:51:57;;;;;;;11.93;7.00;;;;;;;;;;5097328;27;20804;-83
2022/10/11 02:54:34;;;;;;;13.47;6.67;;;;;;;;;;5134020;27;20784;-83
2022/10/11 02:57:11;;;;;;;8.33;6.27;;;;;;;;;;5098550;27;20781;-83
2022/10/11 02:59:47;;;;;;;14.23;6.87;;;;;;;;;;5077012;28;21344;-81
2022/10/11 03:02:24;;;;;;;10.83;7.23;;;;;;;;;;5119791;27;21193;-83
2022/10/11 03:05:00;;;;;;;9.90;6.93;;;;;;;;;;5076803;28;21169;-82
2022/10/11 03:07:37;;;;;;;11.57;7.30;;;;;;;;;;5117988;27;20794;-83
2022/10/11 03:10:13;;;;;;;10.20;7.33;;;;;;;;;;5118093;27;21158;-83
2022/10/11 03:12:50;;;;;;;14.17;7.97;;;;;;;;;;5117286;27;20826;-83
2022/10/11 03:15:27;;;;;;;12.70;7.90;;;;;;;;;;5117890;27;20800;-83
2022/10/11 03:18:03;;;;;;;10.77;7.63;;;;;;;;;;5078340;28;20778;-83
2022/10/11 03:20:40;;;;;;;14.10;8.63;;;;;;;;;;5093450;28;20775;-83
2022/10/11 03:23:17;;;;;;;11.37;7.93;;;;;;;;;;5139382;27;21398;-83
2022/10/11 03:25:53;;;;;;;11.03;8.10;;;;;;;;;;5077593;28;20771;-83
2022/10/11 03:28:30;;;;;;;12.07;8.47;;;;;;;;;;5077782;28;20798;-84
2022/10/11 03:31:06;;;;;;;12.37;8.63;;;;;;;;;;5092260;28;20799;-83
2022/10/11 03:33:43;;;;;;;17.63;9.00;;;;;;;;;;5118736;27;20788;-83
2022/10/11 03:36:20;;;;;;;11.40;7.87;;;;;;;;;;5079582;28;21181;-83
2022/10/11 03:38:56;;;;;;;15.03;7.67;;;;;;;;;;5078407;28;21177;-82
2022/10/11 03:41:33;;;;;;;17.03;7.80;;;;;;;;;;5118699;27;20714;-83
2022/10/11 03:44:09;;;;;;;11.67;6.90;;;;;;;;;;5078132;28;20782;-83
2022/10/11 03:46:46;;;;;;;10.27;7.33;;;;;;;;;;5118833;27;21342;-84
2022/10/11 03:49:23;;;;;;;14.03;8.60;;;;;;;;;;5097502;27;20805;-83
2022/10/11 03:52:01;;;;;;;16.13;9.67;;;;;;;;;;5098052;27;20765;-83
2022/10/11 03:54:37;;;;;;;10.27;8.47;;;;;;;;;;5118638;27;21373;-83
2022/10/11 03:57:14;;;;;;;12.23;7.00;;;;;;;;;;5079049;28;20820;-82
2022/10/11 03:59:51;;;;;;;13.23;8.13;;;;;;;;;;5078024;28;20840;-83
2022/10/11 04:02:27;;;;;;;12.97;7.90;;;;;;;;;;5118844;27;21354;-84
2022/10/11 04:05:05;;;;;;;12.20;8.00;;;;;;;;;;5078773;28;20775;-83
2022/10/11 04:07:42;;;;;;;12.87;8.03;;;;;;;;;;5078058;28;21173;-83
2022/10/11 04:10:19;;;;;;;14.37;7.93;;;;;;;;;;5118209;27;20830;-83
2022/10/11 04:12:55;;;;;;;12.20;7.73;;;;;;;;;;5120354;27;20796;-83
2022/10/11 04:15:32;;;;;;;11.23;8.10;;;;;;;;;;5138760;27;20782;-83
2022/10/11 04:18:09;;;;;;;11.47;7.43;;;;;;;;;;5118355;27;20852;-84
2022/10/11 04:20:45;;;;;;;9.83;7.23;;;;;;;;;;5116795;27;21407;-83
2022/10/11 04:23:22;;;;;;;12.83;7.57;;;;;;;;;;5096315;27;20843;-83
2022/10/11 04:25:58;;;;;;;14.90;7.97;;;;;;;;;;5130505;27;20769;-83
2022/10/11 04:28:35;;;;;;;16.57;9.77;;;;;;;;;;5118501;27;21181;-83
2022/10/11 04:31:12;;;;;;;21.90;10.00;;;;;;;;;;5118520;27;20845;-83
2022/10/11 04:33:48;;;;;;;15.07;9.10;;;;;;;;;;5114232;27;20825;-83
2022/10/11 04:36:25;;;;;;;17.37;9.93;;;;;;;;;;5074076;28;20803;-83
2022/10/11 04:39:01;;;;;;;15.67;8.87;;;;;;;;;;5094165;27;20820;-83
2022/10/11 04:41:38;;;;;;;12.93;8.83;;;;;;;;;;5095627;27;20843;-85
2022/10/11 04:44:14;;;;;;;13.07;8.67;;;;;;;;;;5072687;28;21211;-83
2022/10/11 04:46:51;;;;;;;17.43;9.30;;;;;;;;;;5088620;27;20813;-83
2022/10/11 04:49:28;;;;;;;18.90;12.70;;;;;;;;;;5088808;27;20849;-83
2022/10/11 04:52:04;;;;;;;25.03;14.40;;;;;;;;;;5146546;27;21238;-83
2022/10/11 04:54:41;;;;;;;19.07;12.83;;;;;;;;;;5134198;27;20822;-83
2022/10/11 04:57:18;;;;;;;18.07;11.53;;;;;;;;;;5114542;27;20826;-83
2022/10/11 04:59:54;;;;;;;20.00;10.60;;;;;;;;;;5114701;27;20792;-83
2022/10/11 05:02:31;;;;;;;15.17;9.97;;;;;;;;;;5156216;27;21109;-83
2022/10/11 05:05:08;;;;;;;16.10;10.20;;;;;;;;;;5114551;27;21439;-83
2022/10/11 05:07:44;;;;;;;18.10;11.70;;;;;;;;;;5114767;27;20870;-83
2022/10/11 05:10:21;;;;;;;14.27;11.60;;;;;;;;;;5115131;27;20861;-83
2022/10/11 05:12:57;;;;;;;16.77;10.50;;;;;;;;;;5134976;27;21464;-83
2022/10/11 05:15:34;;;;;;;16.53;10.50;;;;;;;;;;5034625;28;20888;-83
2022/10/11 05:18:10;;;;;;;14.03;10.10;;;;;;;;;;5107277;27;20811;-83
2022/10/11 05:20:47;;;;;;;10.17;8.07;;;;;;;;;;5114492;27;21422;-86
2022/10/11 05:23:24;;;;;;;12.40;7.93;;;;;;;;;;5116889;27;21177;-81
2022/10/11 05:26:01;;;;;;;18.23;9.87;;;;;;;;;;5049049;28;20822;-81
2022/10/11 05:28:38;;;;;;;13.47;8.00;;;;;;;;;;5076538;28;20833;-81
2022/10/11 05:31:15;;;;;;;14.23;6.57;;;;;;;;;;5067315;28;21205;-81
2022/10/11 05:33:52;;;;;;;8.37;7.03;;;;;;;;;;5075141;28;20858;-85
2022/10/11 05:36:28;;;;;;;10.03;7.27;;;;;;;;;;5098774;27;20846;-83
2022/10/11 05:39:05;;;;;;;12.53;7.73;;;;;;;;;;5113233;27;21187;-83
2022/10/11 05:41:41;;;;;;;11.23;7.03;;;;;;;;;;5154513;27;20842;-83
2022/10/11 05:44:18;;;;;;;13.13;7.43;;;;;;;;;;5108441;27;21131;-83
2022/10/11 05:46:55;;;;;;;11.20;7.80;;;;;;;;;;5074343;28;20830;-85
2022/10/11 05:49:31;;;;;;;9.90;6.87;;;;;;;;;;5071869;28;20829;-84
2022/10/11 05:52:09;;;;;;;9.10;6.93;;;;;;;;;;5115491;27;20841;-83
2022/10/11 05:54:47;;;;;;;10.13;6.97;;;;;;;;;;5094255;27;20821;-83
2022/10/11 05:57:24;;;;;;;12.30;7.70;;;;;;;;;;5114988;27;20830;-83
2022/10/11 06:00:01;;;;;;;11.73;6.70;;;;;;;;;;5168664;27;20817;-83
2022/10/11 06:02:38;;;;;;;10.40;7.90;;;;;;;;;;5074735;28;20810;-83
2022/10/11 06:05:15;;;;;;;14.67;7.87;;;;;;;;;;5105957;27;20798;-83
2022/10/11 06:07:52;;;;;;;9.73;7.20;;;;;;;;;;5074335;28;20806;-83
2022/10/11 06:10:29;;;;;;;20.30;7.80;;;;;;;;;;5115343;27;20925;-83
2022/10/11 06:13:08;;;;;;;10.63;7.67;;;;;;;;;;5167795;27;20818;-83
2022/10/11 06:16:08;;;;;;;13.20;7.20;;;;;;;;;;5134253;27;24565;-83
2022/10/11 06:19:03;;;;;;;15.60;7.93;;;;;;;;;;5195991;27;24555;-83
2022/10/11 06:21:58;;;;;;;13.00;8.43;;;;;;;;;;5196282;27;24565;-83
2022/10/11 06:24:54;;;;;;;10.77;7.63;;;;;;;;;;5073302;27;24701;-83
2022/10/11 06:27:48;;;;;;;13.50;7.77;;;;;;;;;;5195466;27;25153;-83
2022/10/11 06:30:54;;;;;;;10.77;8.97;;;;;;;;;;5133938;27;25026;-82
2022/10/11 06:33:49;;;;;;;12.30;8.10;;;;;;;;;;5183727;27;24597;-83
2022/10/11 06:36:42;;;;;;;12.90;8.77;;;;;;;;;;5122096;27;25147;-82
2022/10/11 06:39:46;;;;;;;11.83;8.63;;;;;;;;;;5153648;27;24604;-83
2022/10/11 06:42:39;;;;;;;14.07;8.83;;;;;;;;;;5102903;27;24589;-83
2022/10/11 06:45:34;;;;;;;11.30;8.00;;;;;;;;;;5092641;27;24597;-83
2022/10/11 06:48:44;;;;;;;13.67;7.40;;;;;;;;;;5151409;27;24584;-83
2022/10/11 06:51:43;;;;;;;10.90;8.20;;;;;;;;;;5134164;27;24683;-83
2022/10/11 06:54:45;;;;;;;10.93;7.30;;;;;;;;;;5115216;27;25266;-83
2022/10/11 06:57:48;;;;;;;11.00;8.13;;;;;;;;;;5134323;27;24978;-83
2022/10/11 07:00:41;;;;;;;12.00;7.93;;;;;;;;;;5195884;27;24564;-83
2022/10/11 07:03:35;;;;;;;11.43;8.07;;;;;;;;;;5093166;27;24594;-83
2022/10/11 07:06:28;;;;;;;12.93;7.47;;;;;;;;;;5093014;27;24595;-83
2022/10/11 07:09:22;;;;;;;11.10;7.23;;;;;;;;;;5092826;27;24589;-83
2022/10/11 07:12:13;;;;;;;9.17;6.43;;;;;;;;;;5093123;27;24595;-83
2022/10/11 07:15:09;;;;;;;10.30;6.47;;;;;;;;;;5133505;27;25127;-83
2022/10/11 07:18:00;;;;;;;8.90;6.30;;;;;;;;;;5124377;27;24565;-83
2022/10/11 07:20:54;;;;;;;14.13;7.27;;;;;;;;;;5195592;27;24615;-83
2022/10/11 07:23:45;;;;;;;10.83;6.80;;;;;;;;;;5092974;27;24704;-83
2022/10/11 07:26:39;;;;;;;14.50;7.00;;;;;;;;;;5092660;27;24581;-83
2022/10/11 07:29:39;;;;;;;13.63;6.73;;;;;;;;;;5133888;27;24697;-83
2022/10/11 07:32:44;;;;;;;8.93;6.70;;;;;;;;;;5148762;27;25162;-82
2022/10/11 07:35:38;;;;;;;14.73;6.97;;;;;;;;;;5092156;27;24581;-82
2022/10/11 07:38:39;;;;;;;11.93;7.13;;;;;;;;;;5092233;27;24636;-82
2022/10/11 07:41:30;;;;;;;15.87;7.80;;;;;;;;;;5153155;27;24690;-82
2022/10/11 07:44:25;;;;;;;11.23;7.00;;;;;;;;;;5178374;27;24587;-82
2022/10/11 07:47:22;;;;;;;11.17;7.43;;;;;;;;;;5116221;27;25198;-82
2022/10/11 07:50:16;;;;;;;11.80;7.73;;;;;;;;;;5195373;27;25125;-82
2022/10/11 07:53:18;;;;;;;12.67;7.07;;;;;;;;;;5111550;27;24651;-82
2022/10/11 07:56:26;;;;;;;9.47;7.07;;;;;;;;;;5133767;27;25259;-82
2022/10/11 07:59:30;;;;;;;13.80;6.93;;;;;;;;;;5091899;27;24557;-82
2022/10/11 08:02:21;;;;;;;12.00;7.20;;;;;;;;;;5153527;27;24682;-82
2022/10/11 08:05:31;;;;;;;10.20;7.30;;;;;;;;;;5133615;27;24745;-82
2022/10/11 08:08:29;;;;;;;11.53;7.60;;;;;;;;;;5092350;27;24562;-82
2022/10/11 08:11:29;;;;;;;17.40;8.70;;;;;;;;;;5092364;27;24595;-82
2022/10/11 08:14:29;;;;;;;12.90;8.67;;;;;;;;;;5133747;27;24598;-82
2022/10/11 08:17:23;;;;;;;15.17;9.23;;;;;;;;;;5195566;27;24543;-82
2022/10/11 08:20:17;;;;;;;13.80;7.70;;;;;;;;;;5195361;27;24571;-82
2022/10/11 08:23:15;;;;;;;9.57;7.73;;;;;;;;;;5122659;27;24647;-82
2022/10/11 08:26:08;;;;;;;13.80;7.60;;;;;;;;;;5092962;27;24562;-82
2022/10/11 08:29:03;;;;;;;13.17;7.73;;;;;;;;;;5092541;27;24573;-82
2022/10/11 08:32:10;;;;;;;10.43;6.83;;;;;;;;;;5133872;27;24569;-82
2022/10/11 08:35:00;;;;;;;11.23;7.17;;;;;;;;;;5123545;27;24622;-82
2022/10/11 08:37:51;;;;;;;14.57;7.97;;;;;;;;;;5092513;27;24645;-82
2022/10/11 08:40:54;;;;;;;12.83;8.10;;;;;;;;;;5195966;27;24548;-82
2022/10/11 08:43:45;;;;;;;12.30;8.93;;;;;;;;;;5092503;27;25290;-82
2022/10/11 08:47:05;;;;;;;14.83;7.50;;;;;;;;;;5151133;27;25259;-82
2022/10/11 08:49:57;;;;;;;12.93;9.00;;;;;;;;;;5093335;27;24700;-82
2022/10/11 08:52:57;;;;;;;11.43;9.03;;;;;;;;;;5092931;27;25156;-82
2022/10/11 08:55:52;;;;;;;10.87;8.53;;;;;;;;;;5094083;27;25188;-82
2022/10/11 08:59:12;;;;;;;15.50;8.57;;;;;;;;;;5102511;28;20186;-83
2022/10/11 09:02:35;;;;;;;11.97;8.57;;;;;;;;;;5079400;28;20187;-83
2022/10/11 09:06:02;;;;;;;11.57;9.83;;;;;;;;;;5070835;28;20212;-83
2022/10/11 09:09:34;;;;;;;16.10;10.07;;;;;;;;;;5070308;28;20192;-83
2022/10/11 09:12:38;;;;;;;11.70;8.53;;;;;;;;;;5058733;28;20524;-82
2022/10/11 09:16:05;;;;;;;16.50;8.37;;;;;;;;;;5070510;28;20172;-83
2022/10/11 09:19:24;;;;;;;15.27;7.80;;;;;;;;;;5059047;28;20188;-83
2022/10/11 09:22:58;;;;;;;14.00;7.90;;;;;;;;;;5070252;28;20183;-83
2022/10/11 09:26:13;;;;;;;14.37;7.93;;;;;;;;;;5047438;28;20623;-83
2022/10/11 09:29:38;;;;;;;10.17;7.10;;;;;;;;;;5081591;28;20180;-83
2022/10/11 09:33:09;;;;;;;11.50;7.40;;;;;;;;;;5069885;28;20184;-83
2022/10/11 09:36:38;;;;;;;12.67;7.57;;;;;;;;;;5057836;28;20195;-84
2022/10/11 09:40:09;;;;;;;12.50;7.47;;;;;;;;;;5081759;28;20180;-83
2022/10/11 09:43:14;;;;;;;9.70;6.50;;;;;;;;;;5081594;28;20207;-83
2022/10/11 09:46:22;;;;;;;12.73;6.03;;;;;;;;;;5081350;28;20192;-83
2022/10/11 09:49:41;;;;;;;13.03;6.37;;;;;;;;;;5058130;28;20183;-83
2022/10/11 09:52:51;;;;;;;11.20;6.87;;;;;;;;;;5080953;28;20180;-83
2022/10/11 09:56:02;;;;;;;10.00;5.87;;;;;;;;;;5058888;28;20187;-84
2022/10/11 09:59:28;;;;;;;10.23;6.30;;;;;;;;;;5081108;28;20184;-83
2022/10/11 10:02:43;;;;;;;13.87;6.07;;;;;;;;;;5069549;28;20188;-84
2022/10/11 10:06:07;;;;;;;14.93;6.80;;;;;;;;;;5062360;28;20623;-83
2022/10/11 10:09:29;;;;;;;13.00;6.87;;;;;;;;;;5045073;28;20172;-83
2022/10/11 10:12:33;;;;;;;9.20;6.70;;;;;;;;;;5044587;28;20180;-83
2022/10/11 10:15:44;;;;;;;11.67;6.93;;;;;;;;;;5055833;28;20203;-83
2022/10/11 10:18:54;;;;;;;8.80;6.80;;;;;;;;;;5044323;28;20666;-84
2022/10/11 10:21:58;;;;;;;14.10;7.53;;;;;;;;;;5055869;28;20192;-84
2022/10/11 10:25:06;;;;;;;10.43;7.43;;;;;;;;;;5044594;28;20172;-84
2022/10/11 10:28:25;;;;;;;9.70;6.70;;;;;;;;;;5044703;28;20173;-84
2022/10/11 10:31:34;;;;;;;11.13;7.50;;;;;;;;;;5056186;28;20177;-84
2022/10/11 10:35:14;;;;;;;10.40;7.80;;;;;;;;;;5056321;28;20698;-82
2022/10/11 10:38:24;;;;;;;13.10;9.43;;;;;;;;;;5062033;28;20619;-83
2022/10/11 10:41:28;;;;;;;10.07;6.13;;;;;;;;;;5067805;28;20192;-83
2022/10/11 10:44:32;;;;;;;11.03;6.57;;;;;;;;;;5067747;28;20208;-84
2022/10/11 10:47:43;;;;;;;9.87;5.97;;;;;;;;;;5044617;28;20180;-84
2022/10/11 10:50:51;;;;;;;9.57;5.83;;;;;;;;;;5055451;28;20176;-84
2022/10/11 10:54:09;;;;;;;11.10;5.33;;;;;;;;;;5057202;28;20699;-83
2022/10/11 10:57:13;;;;;;;7.93;5.10;;;;;;;;;;5070469;28;20188;-83
2022/10/11 11:00:20;;;;;;;10.53;5.37;;;;;;;;;;5058477;28;20176;-83
2022/10/11 11:03:41;;;;;;;11.57;5.27;;;;;;;;;;5057902;28;20674;-83
2022/10/11 11:06:55;;;;;;;8.50;4.80;;;;;;;;;;5059417;28;20180;-82
2022/10/11 11:10:11;;;;;;;10.47;4.83;;;;;;;;;;5070978;28;20176;-83
2022/10/11 11:13:27;;;;;;;9.93;5.00;;;;;;;;;;5069598;28;20207;-83
2022/10/11 11:16:47;;;;;;;9.40;4.50;;;;;;;;;;5071347;28;20189;-83
2022/10/11 11:19:57;;;;;;;8.90;4.00;;;;;;;;;;5055487;28;20184;-83
2022/10/11 11:23:22;;;;;;;8.63;4.07;;;;;;;;;;5055848;28;20220;-83
2022/10/11 11:26:43;;;;;;;6.87;4.30;;;;;;;;;;5069253;28;20636;-83
2022/10/11 11:29:47;;;;;;;5.63;3.53;;;;;;;;;;5045595;28;20200;-83
2022/10/11 11:33:04;;;;;;;7.23;4.30;;;;;;;;;;5055866;28;20220;-83
2022/10/11 11:36:14;;;;;;;8.67;3.73;;;;;;;;;;5055572;28;20656;-83
2022/10/11 11:39:31;;;;;;;9.83;3.50;;;;;;;;;;5044676;28;20184;-83
2022/10/11 11:42:58;;;;;;;5.33;2.97;;;;;;;;;;5056663;28;20184;-83
2022/10/11 11:46:12;;;;;;;6.90;3.90;;;;;;;;;;5044824;28;20185;-83
2022/10/11 11:49:24;;;;;;;10.83;4.50;;;;;;;;;;5079598;28;20192;-83
2022/10/11 11:52:35;;;;;;;6.60;4.43;;;;;;;;;;5044354;28;20192;-83
2022/10/11 11:55:48;;;;;;;7.53;3.70;;;;;;;;;;5050015;28;20663;-83
2022/10/11 11:59:08;;;;;;;10.70;4.80;;;;;;;;;;5043220;28;20552;-83
2022/10/11 12:02:16;;;;;;;8.37;4.40;;;;;;;;;;5067274;28;20185;-83
2022/10/11 12:05:30;;;;;;;8.90;5.50;;;;;;;;;;5043709;28;20172;-83
2022/10/11 12:08:35;;;;;;;11.83;5.40;;;;;;;;;;5067134;28;20184;-83
2022/10/11 12:11:42;;;;;;;13.20;5.60;;;;;;;;;;5043910;28;20196;-83
2022/10/11 12:14:47;;;;;;;5.83;4.53;;;;;;;;;;5055505;28;20224;-83
2022/10/11 12:17:58;;;;;;;8.40;5.30;;;;;;;;;;5067237;28;20184;-83
2022/10/11 12:21:06;;;;;;;9.87;5.03;;;;;;;;;;5056424;28;20540;-83
2022/10/11 12:24:19;;;;;;;12.73;5.63;;;;;;;;;;5066261;28;20208;-83
2022/10/11 12:27:47;;;;;;;9.70;5.70;;;;;;;;;;5055302;28;20536;-83
2022/10/11 12:30:52;;;;;;;10.00;5.23;;;;;;;;;;5055192;28;20176;-83
2022/10/11 12:34:19;;;;;;;6.53;5.27;;;;;;;;;;5068849;28;20211;-83
2022/10/11 12:37:23;;;;;;;9.47;5.37;;;;;;;;;;5045264;28;20204;-83
2022/10/11 12:40:41;;;;;;;10.40;5.77;;;;;;;;;;5044849;28;20188;-83
2022/10/11 12:43:48;;;;;;;12.13;5.80;;;;;;;;;;5066408;28;20212;-83
2022/10/11 12:46:53;;;;;;;10.37;6.00;;;;;;;;;;5056049;28;20172;-83
2022/10/11 12:50:18;;;;;;;12.03;6.40;;;;;;;;;;5043968;28;20188;-83
2022/10/11 12:53:31;;;;;;;12.57;6.17;;;;;;;;;;5078131;28;20224;-83
2022/10/11 12:56:48;;;;;;;15.13;6.00;;;;;;;;;;5055401;28;20204;-83
2022/10/11 12:59:52;;;;;;;11.37;6.90;;;;;;;;;;5056930;28;20188;-83
2022/10/11 13:02:59;;;;;;;9.37;6.37;;;;;;;;;;5066380;28;20208;-83
2022/10/11 13:06:26;;;;;;;16.97;7.00;;;;;;;;;;5066367;28;20172;-82
2022/10/11 13:09:39;;;;;;;13.57;7.13;;;;;;;;;;5042319;28;20184;-82
2022/10/11 13:12:47;;;;;;;12.00;5.30;;;;;;;;;;5053819;28;20184;-83
2022/10/11 13:15:55;;;;;;;8.57;4.87;;;;;;;;;;5053797;28;20196;-83
2022/10/11 13:18:59;;;;;;;11.17;5.13;;;;;;;;;;5041586;28;20208;-83
2022/10/11 13:22:14;;;;;;;10.83;5.40;;;;;;;;;;5064988;28;20616;-83
2022/10/11 13:25:28;;;;;;;7.70;5.00;;;;;;;;;;5042110;28;20509;-83
2022/10/11 13:28:33;;;;;;;9.23;5.10;;;;;;;;;;5064548;28;20185;-83
2022/10/11 13:31:39;;;;;;;9.63;5.00;;;;;;;;;;5064581;28;20181;-83
2022/10/11 13:34:46;;;;;;;8.93;4.90;;;;;;;;;;5063471;28;20568;-83
2022/10/11 13:37:50;;;;;;;7.43;4.93;;;;;;;;;;5041174;28;20180;-83
2022/10/11 13:40:56;;;;;;;11.87;5.03;;;;;;;;;;5042347;28;20180;-83
2022/10/11 13:44:02;;;;;;;11.50;4.77;;;;;;;;;;5056059;28;20560;-83
2022/10/11 13:47:15;;;;;;;8.80;4.27;;;;;;;;;;5056191;28;20192;-83
2022/10/11 13:50:33;;;;;;;15.10;4.70;;;;;;;;;;5067328;28;20180;-83
2022/10/11 13:53:56;;;;;;;10.83;4.47;;;;;;;;;;5067540;28;20228;-83
2022/10/11 13:57:01;;;;;;;13.07;4.23;;;;;;;;;;5044171;28;20185;-83
2022/10/11 14:00:27;;;;;;;14.20;4.03;;;;;;;;;;5067348;28;20176;-83
2022/10/11 14:03:47;;;;;;;10.80;4.70;;;;;;;;;;5055947;28;20211;-83
2022/10/11 14:06:58;;;;;;;11.43;4.73;;;;;;;;;;5055832;28;20176;-83
2022/10/11 14:10:04;;;;;;;10.00;4.80;;;;;;;;;;5044147;28;20176;-83
2022/10/11 14:13:23;;;;;;;9.60;4.00;;;;;;;;;;5044092;28;20698;-83
2022/10/11 14:16:29;;;;;;;9.73;4.83;;;;;;;;;;5055620;28;20208;-83
2022/10/11 14:19:34;;;;;;;16.20;5.27;;;;;;;;;;5066888;28;20196;-83
2022/10/11 14:22:38;;;;;;;8.57;4.83;;;;;;;;;;5043899;28;20184;-84
2022/10/11 14:25:42;;;;;;;10.27;5.13;;;;;;;;;;5055353;28;20176;-83
2022/10/11 14:28:54;;;;;;;10.80;5.87;;;;;;;;;;5043913;28;20180;-83
2022/10/11 14:32:05;;;;;;;15.53;6.00;;;;;;;;;;5044099;28;20176;-83
2022/10/11 14:35:24;;;;;;;11.03;5.50;;;;;;;;;;5066358;28;20200;-83
2022/10/11 14:38:28;;;;;;;9.27;5.47;;;;;;;;;;5066605;28;20208;-83
2022/10/11 14:41:32;;;;;;;10.73;5.50;;;;;;;;;;5078418;28;20176;-83
2022/10/11 14:44:37;;;;;;;12.33;5.80;;;;;;;;;;5067900;28;20212;-80
2022/10/11 14:47:41;;;;;;;9.10;5.00;;;;;;;;;;5046509;28;20517;-80
2022/10/11 14:50:51;;;;;;;13.27;5.00;;;;;;;;;;5070960;28;20172;-81
2022/10/11 14:53:55;;;;;;;10.60;4.60;;;;;;;;;;5048555;28;20229;-81
2022/10/11 14:57:02;;;;;;;13.87;4.77;;;;;;;;;;5059474;28;20211;-82
2022/10/11 15:00:15;;;;;;;12.60;5.20;;;;;;;;;;5060325;28;20196;-81
2022/10/11 15:03:19;;;;;;;11.07;5.27;;;;;;;;;;5059913;28;20216;-82
2022/10/11 15:06:31;;;;;;;14.47;5.20;;;;;;;;;;5058974;28;20180;-83
2022/10/11 15:09:35;;;;;;;8.10;5.10;;;;;;;;;;5055337;28;20180;-82
2022/10/11 15:12:39;;;;;;;11.87;5.60;;;;;;;;;;5031791;28;20639;-82
2022/10/11 15:15:44;;;;;;;12.17;5.30;;;;;;;;;;5054940;28;20196;-81
2022/10/11 15:18:51;;;;;;;10.47;5.80;;;;;;;;;;5035285;28;20676;-81
2022/10/11 15:21:56;;;;;;;13.00;5.80;;;;;;;;;;5045648;28;20201;-83
2022/10/11 15:25:00;;;;;;;20.53;6.37;;;;;;;;;;5046178;28;20184;-81
2022/10/11 15:28:05;;;;;;;11.27;6.13;;;;;;;;;;5057489;28;20176;-80
2022/10/11 15:31:10;;;;;;;11.27;6.10;;;;;;;;;;5034936;28;20177;-81
2022/10/11 15:34:15;;;;;;;11.77;5.93;;;;;;;;;;5022882;28;20212;-81
2022/10/11 15:37:19;;;;;;;10.27;5.90;;;;;;;;;;5046296;28;20204;-81
2022/10/11 15:40:26;;;;;;;14.27;6.23;;;;;;;;;;5035937;28;20193;-82
2022/10/11 15:43:31;;;;;;;15.10;5.90;;;;;;;;;;5023259;28;20221;-81
2022/10/11 15:46:35;;;;;;;11.03;6.27;;;;;;;;;;5023513;28;20177;-81
2022/10/11 15:49:39;;;;;;;12.47;5.90;;;;;;;;;;5045622;28;20181;-82
2022/10/11 15:52:44;;;;;;;13.90;7.30;;;;;;;;;;5047001;28;20181;-81
2022/10/11 15:55:51;;;;;;;13.60;7.50;;;;;;;;;;5035566;28;20193;-81
2022/10/11 15:58:55;;;;;;;13.83;6.30;;;;;;;;;;5045674;28;20205;-84
2022/10/11 16:01:59;;;;;;;16.00;7.50;;;;;;;;;;5034418;28;20184;-84
2022/10/11 16:05:03;;;;;;;14.27;7.70;;;;;;;;;;5021909;28;20181;-84
2022/10/11 16:08:09;;;;;;;17.93;7.80;;;;;;;;;;5022310;28;20200;-84
2022/10/11 16:11:13;;;;;;;12.63;9.37;;;;;;;;;;5045490;28;20196;-82
2022/10/11 16:14:17;;;;;;;15.90;8.83;;;;;;;;;;5034215;28;20216;-82
2022/10/11 16:17:21;;;;;;;14.03;8.80;;;;;;;;;;5047056;28;20201;-82
2022/10/11 16:20:26;;;;;;;16.63;9.13;;;;;;;;;;5035286;28;20625;-81
2022/10/11 16:23:30;;;;;;;13.10;9.37;;;;;;;;;;5036953;28;20216;-81
2022/10/11 16:26:34;;;;;;;17.00;9.87;;;;;;;;;;5036120;28;20177;-81
2022/10/11 16:29:38;;;;;;;17.30;9.57;;;;;;;;;;5048519;28;20201;-81
2022/10/11 16:32:44;;;;;;;17.33;9.07;;;;;;;;;;5060391;28;20656;-81
2022/10/11 16:35:48;;;;;;;15.73;8.67;;;;;;;;;;5060382;28;20217;-81
2022/10/11 16:38:52;;;;;;;13.57;7.63;;;;;;;;;;5024578;28;20633;-81
2022/10/11 16:41:55;;;;;;;16.47;9.33;;;;;;;;;;5035112;28;20185;-81
2022/10/11 16:44:59;;;;;;;15.97;8.60;;;;;;;;;;5025357;28;20176;-81
2022/10/11 16:48:04;;;;;;;12.40;7.60;;;;;;;;;;5035310;28;20628;-81
2022/10/11 16:51:08;;;;;;;12.57;7.93;;;;;;;;;;5033566;28;20184;-82
2022/10/11 16:54:13;;;;;;;14.57;8.20;;;;;;;;;;5021792;28;20228;-82
2022/10/11 16:57:18;;;;;;;13.40;7.80;;;;;;;;;;5044775;28;20200;-82
2022/10/11 17:00:23;;;;;;;15.47;9.00;;;;;;;;;;5024551;28;20197;-81
2022/10/11 17:03:27;;;;;;;18.40;10.33;;;;;;;;;;5036904;28;20212;-80
2022/10/11 17:06:31;;;;;;;18.07;11.87;;;;;;;;;;5037835;28;20184;-80
2022/10/11 17:09:36;;;;;;;17.40;10.53;;;;;;;;;;5026942;28;20184;-80
2022/10/11 17:12:39;;;;;;;18.87;10.17;;;;;;;;;;5037729;28;20193;-81
2022/10/11 17:15:43;;;;;;;15.90;10.47;;;;;;;;;;5027619;28;20566;-82
2022/10/11 17:18:48;;;;;;;17.33;10.27;;;;;;;;;;5029136;28;20603;-81
2022/10/11 17:21:53;;;;;;;14.70;10.27;;;;;;;;;;5028919;28;20568;-81
2022/10/11 17:25:00;;;;;;;17.87;10.57;;;;;;;;;;5042239;28;20199;-82